sensor_id;sensor_type;location;lat;lon;timestamp;temperature;humidity
15262;DHT22;7733;51.554;13.590;2023-08-01T00:01:30;18.00;99.90
15262;DHT22;7733;51.554;13.590;2023-08-01T00:03:56;18.10;99.90
15262;DHT22;7733;51.554;13.590;2023-08-01T00:06:21;18.00;99.90
15262;DHT22;7733;51.554;13.590;2023-08-01T00:08:49;18.00;99.90
15262;DHT22;7733;51.554;13.590;2023-08-01T00:11:15;18.10;99.90
15262;DHT22;7733;51.554;13.590;2023-08-01T00:13:41;18.10;99.90
15262;DHT22;7733;51.554;13.590;2023-08-01T00:16:09;18.20;99.90
15262;DHT22;7733;51.554;13.590;2023-08-01T00:18:35;18.10;99.90
15262;DHT22;7733;51.554;13.590;2023-08-01T00:21:01;18.20;99.90
15262;DHT22;7733;51.554;13.590;2023-08-01T00:23:27;18.10;99.90
15262;DHT22;7733;51.554;13.590;2023-08-01T00:25:53;18.10;99.90
15262;DHT22;7733;51.554;13.590;2023-08-01T00:28:19;18.10;99.90
15262;DHT22;7733;51.554;13.590;2023-08-01T00:30:45;18.10;99.90
15262;DHT22;7733;51.554;13.590;2023-08-01T00:33:10;18.10;99.90
15262;DHT22;7733;51.554;13.590;2023-08-01T00:35:36;18.00;99.90
15262;DHT22;7733;51.554;13.590;2023-08-01T00:38:02;18.00;99.90
15262;DHT22;7733;51.554;13.590;2023-08-01T00:40:31;17.80;99.90
15262;DHT22;7733;51.554;13.590;2023-08-01T00:42:57;17.80;99.90
15262;DHT22;7733;51.554;13.590;2023-08-01T00:45:25;17.90;99.90
15262;DHT22;7733;51.554;13.590;2023-08-01T00:47:54;17.90;99.90
15262;DHT22;7733;51.554;13.590;2023-08-01T00:50:20;17.90;99.90
15262;DHT22;7733;51.554;13.590;2023-08-01T00:52:47;17.90;99.90
15262;DHT22;7733;51.554;13.590;2023-08-01T00:55:15;17.80;99.90
15262;DHT22;7733;51.554;13.590;2023-08-01T00:57:42;17.70;99.90
15262;DHT22;7733;51.554;13.590;2023-08-01T01:00:09;17.80;99.90
15262;DHT22;7733;51.554;13.590;2023-08-01T01:02:36;17.80;99.90
15262;DHT22;7733;51.554;13.590;2023-08-01T01:05:03;17.70;99.90
15262;DHT22;7733;51.554;13.590;2023-08-01T01:07:31;17.70;99.90
15262;DHT22;7733;51.554;13.590;2023-08-01T01:09:58;17.70;99.90
15262;DHT22;7733;51.554;13.590;2023-08-01T01:12:24;17.60;99.90
15262;DHT22;7733;51.554;13.590;2023-08-01T01:14:50;17.50;99.90
15262;DHT22;7733;51.554;13.590;2023-08-01T01:17:15;17.60;99.90
15262;DHT22;7733;51.554;13.590;2023-08-01T01:19:41;17.60;99.90
15262;DHT22;7733;51.554;13.590;2023-08-01T01:22:08;17.70;99.90
15262;DHT22;7733;51.554;13.590;2023-08-01T01:24:36;17.80;99.90
15262;DHT22;7733;51.554;13.590;2023-08-01T01:27:06;17.90;99.90
15262;DHT22;7733;51.554;13.590;2023-08-01T01:29:33;17.70;99.90
15262;DHT22;7733;51.554;13.590;2023-08-01T01:32:00;17.70;99.90
15262;DHT22;7733;51.554;13.590;2023-08-01T01:34:28;17.50;99.90
15262;DHT22;7733;51.554;13.590;2023-08-01T01:36:53;17.60;99.90
15262;DHT22;7733;51.554;13.590;2023-08-01T01:39:20;17.50;99.90
15262;DHT22;7733;51.554;13.590;2023-08-01T01:41:46;17.40;99.90
15262;DHT22;7733;51.554;13.590;2023-08-01T01:44:12;17.40;99.90
15262;DHT22;7733;51.554;13.590;2023-08-01T01:46:38;17.50;99.90
15262;DHT22;7733;51.554;13.590;2023-08-01T01:49:03;17.50;99.90
15262;DHT22;7733;51.554;13.590;2023-08-01T01:51:30;17.40;99.90
15262;DHT22;7733;51.554;13.590;2023-08-01T01:53:56;17.40;99.90
15262;DHT22;7733;51.554;13.590;2023-08-01T01:56:22;17.40;99.90
15262;DHT22;7733;51.554;13.590;2023-08-01T01:58:47;17.40;99.90
15262;DHT22;7733;51.554;13.590;2023-08-01T02:01:13;17.50;99.90
15262;DHT22;7733;51.554;13.590;2023-08-01T02:03:39;17.40;99.90
15262;DHT22;7733;51.554;13.590;2023-08-01T02:06:05;17.40;99.90
15262;DHT22;7733;51.554;13.590;2023-08-01T02:08:31;17.40;99.90
15262;DHT22;7733;51.554;13.590;2023-08-01T02:10:57;17.40;99.90
15262;DHT22;7733;51.554;13.590;2023-08-01T02:13:27;17.50;99.90
15262;DHT22;7733;51.554;13.590;2023-08-01T02:15:54;17.50;99.90
15262;DHT22;7733;51.554;13.590;2023-08-01T02:18:20;17.50;99.90
15262;DHT22;7733;51.554;13.590;2023-08-01T02:20:46;17.40;99.90
15262;DHT22;7733;51.554;13.590;2023-08-01T02:23:12;17.40;99.90
15262;DHT22;7733;51.554;13.590;2023-08-01T02:25:41;17.40;99.90
15262;DHT22;7733;51.554;13.590;2023-08-01T02:28:07;17.40;99.90
15262;DHT22;7733;51.554;13.590;2023-08-01T02:30:34;17.40;99.90
15262;DHT22;7733;51.554;13.590;2023-08-01T02:33:01;17.40;99.90
15262;DHT22;7733;51.554;13.590;2023-08-01T02:35:27;17.50;99.90
15262;DHT22;7733;51.554;13.590;2023-08-01T02:37:54;17.50;99.90
15262;DHT22;7733;51.554;13.590;2023-08-01T02:40:20;17.40;99.90
15262;DHT22;7733;51.554;13.590;2023-08-01T02:42:46;17.50;99.90
15262;DHT22;7733;51.554;13.590;2023-08-01T02:45:12;17.50;99.90
15262;DHT22;7733;51.554;13.590;2023-08-01T02:47:38;17.40;99.90
15262;DHT22;7733;51.554;13.590;2023-08-01T02:50:04;17.40;99.90
15262;DHT22;7733;51.554;13.590;2023-08-01T02:52:31;17.40;99.90
15262;DHT22;7733;51.554;13.590;2023-08-01T02:54:57;17.40;99.90
15262;DHT22;7733;51.554;13.590;2023-08-01T02:57:23;17.40;99.90
15262;DHT22;7733;51.554;13.590;2023-08-01T02:59:49;17.40;99.90
15262;DHT22;7733;51.554;13.590;2023-08-01T03:02:15;17.40;99.90
15262;DHT22;7733;51.554;13.590;2023-08-01T03:04:40;17.40;99.90
15262;DHT22;7733;51.554;13.590;2023-08-01T03:07:06;17.40;99.90
15262;DHT22;7733;51.554;13.590;2023-08-01T03:09:32;17.40;99.90
15262;DHT22;7733;51.554;13.590;2023-08-01T03:11:58;17.40;99.90
15262;DHT22;7733;51.554;13.590;2023-08-01T03:14:24;17.40;99.90
15262;DHT22;7733;51.554;13.590;2023-08-01T03:16:49;17.40;99.90
15262;DHT22;7733;51.554;13.590;2023-08-01T03:19:15;17.40;99.90
15262;DHT22;7733;51.554;13.590;2023-08-01T03:21:41;17.40;99.90
15262;DHT22;7733;51.554;13.590;2023-08-01T03:24:07;17.30;99.90
15262;DHT22;7733;51.554;13.590;2023-08-01T03:26:35;17.30;99.90
15262;DHT22;7733;51.554;13.590;2023-08-01T03:29:01;17.20;99.90
15262;DHT22;7733;51.554;13.590;2023-08-01T03:31:27;17.20;99.90
15262;DHT22;7733;51.554;13.590;2023-08-01T03:33:53;17.20;99.90
15262;DHT22;7733;51.554;13.590;2023-08-01T03:36:19;17.10;99.90
15262;DHT22;7733;51.554;13.590;2023-08-01T03:38:45;17.10;99.90
15262;DHT22;7733;51.554;13.590;2023-08-01T03:41:11;17.10;99.90
15262;DHT22;7733;51.554;13.590;2023-08-01T03:43:37;17.10;99.90
15262;DHT22;7733;51.554;13.590;2023-08-01T03:46:04;17.10;99.90
15262;DHT22;7733;51.554;13.590;2023-08-01T03:48:30;17.10;99.90
15262;DHT22;7733;51.554;13.590;2023-08-01T03:50:56;17.10;99.90
15262;DHT22;7733;51.554;13.590;2023-08-01T03:53:22;17.20;99.90
15262;DHT22;7733;51.554;13.590;2023-08-01T03:55:47;17.10;99.90
15262;DHT22;7733;51.554;13.590;2023-08-01T03:58:16;17.20;99.90
15262;DHT22;7733;51.554;13.590;2023-08-01T04:00:42;17.20;99.90
15262;DHT22;7733;51.554;13.590;2023-08-01T04:03:08;17.30;99.90
15262;DHT22;7733;51.554;13.590;2023-08-01T04:05:33;17.20;99.90
15262;DHT22;7733;51.554;13.590;2023-08-01T04:07:59;17.30;99.90
15262;DHT22;7733;51.554;13.590;2023-08-01T04:10:25;17.40;99.90
15262;DHT22;7733;51.554;13.590;2023-08-01T04:12:51;17.40;99.90
15262;DHT22;7733;51.554;13.590;2023-08-01T04:15:16;17.40;99.90
15262;DHT22;7733;51.554;13.590;2023-08-01T04:17:42;17.30;99.90
15262;DHT22;7733;51.554;13.590;2023-08-01T04:20:08;17.30;99.90
15262;DHT22;7733;51.554;13.590;2023-08-01T04:22:34;17.30;99.90
15262;DHT22;7733;51.554;13.590;2023-08-01T04:25:01;17.30;99.90
15262;DHT22;7733;51.554;13.590;2023-08-01T04:27:27;17.20;99.90
15262;DHT22;7733;51.554;13.590;2023-08-01T04:29:55;17.20;99.90
15262;DHT22;7733;51.554;13.590;2023-08-01T04:32:21;17.30;99.90
15262;DHT22;7733;51.554;13.590;2023-08-01T04:34:46;17.30;99.90
15262;DHT22;7733;51.554;13.590;2023-08-01T04:37:12;17.30;99.90
15262;DHT22;7733;51.554;13.590;2023-08-01T04:39:38;17.30;99.90
15262;DHT22;7733;51.554;13.590;2023-08-01T04:42:04;17.30;99.90
15262;DHT22;7733;51.554;13.590;2023-08-01T04:44:30;17.30;99.90
15262;DHT22;7733;51.554;13.590;2023-08-01T04:46:56;17.20;99.90
15262;DHT22;7733;51.554;13.590;2023-08-01T04:49:22;17.30;99.90
15262;DHT22;7733;51.554;13.590;2023-08-01T04:51:50;17.30;99.90
15262;DHT22;7733;51.554;13.590;2023-08-01T04:54:16;17.30;99.90
15262;DHT22;7733;51.554;13.590;2023-08-01T04:56:42;17.40;99.90
15262;DHT22;7733;51.554;13.590;2023-08-01T04:59:07;17.40;99.90
15262;DHT22;7733;51.554;13.590;2023-08-01T05:01:33;17.40;99.90
15262;DHT22;7733;51.554;13.590;2023-08-01T05:03:59;17.40;99.90
15262;DHT22;7733;51.554;13.590;2023-08-01T05:06:25;17.50;99.90
15262;DHT22;7733;51.554;13.590;2023-08-01T05:08:51;17.50;99.90
15262;DHT22;7733;51.554;13.590;2023-08-01T05:11:16;17.50;99.90
15262;DHT22;7733;51.554;13.590;2023-08-01T05:13:42;17.50;99.90
15262;DHT22;7733;51.554;13.590;2023-08-01T05:16:08;17.50;99.90
15262;DHT22;7733;51.554;13.590;2023-08-01T05:18:33;17.50;99.90
15262;DHT22;7733;51.554;13.590;2023-08-01T05:20:59;17.50;99.90
15262;DHT22;7733;51.554;13.590;2023-08-01T05:23:25;17.50;99.90
15262;DHT22;7733;51.554;13.590;2023-08-01T05:25:50;17.50;99.90
15262;DHT22;7733;51.554;13.590;2023-08-01T05:28:16;17.40;99.90
15262;DHT22;7733;51.554;13.590;2023-08-01T05:30:42;17.40;99.90
15262;DHT22;7733;51.554;13.590;2023-08-01T05:33:08;17.40;99.90
15262;DHT22;7733;51.554;13.590;2023-08-01T05:35:33;17.50;99.90
15262;DHT22;7733;51.554;13.590;2023-08-01T05:37:59;17.50;99.90
15262;DHT22;7733;51.554;13.590;2023-08-01T05:40:25;17.50;99.90
15262;DHT22;7733;51.554;13.590;2023-08-01T05:42:51;17.60;99.90
15262;DHT22;7733;51.554;13.590;2023-08-01T05:45:17;17.70;99.90
15262;DHT22;7733;51.554;13.590;2023-08-01T05:47:42;17.70;99.90
15262;DHT22;7733;51.554;13.590;2023-08-01T05:50:08;17.70;99.90
15262;DHT22;7733;51.554;13.590;2023-08-01T05:52:34;17.70;99.90
15262;DHT22;7733;51.554;13.590;2023-08-01T05:55:01;17.70;99.90
15262;DHT22;7733;51.554;13.590;2023-08-01T05:57:27;17.70;99.90
15262;DHT22;7733;51.554;13.590;2023-08-01T05:59:52;17.70;99.90
15262;DHT22;7733;51.554;13.590;2023-08-01T06:02:18;17.70;99.90
15262;DHT22;7733;51.554;13.590;2023-08-01T06:04:44;17.80;99.90
15262;DHT22;7733;51.554;13.590;2023-08-01T06:07:10;17.80;99.90
15262;DHT22;7733;51.554;13.590;2023-08-01T06:09:35;17.70;99.90
15262;DHT22;7733;51.554;13.590;2023-08-01T06:12:01;17.80;99.90
15262;DHT22;7733;51.554;13.590;2023-08-01T06:14:27;17.80;99.90
15262;DHT22;7733;51.554;13.590;2023-08-01T06:16:53;17.80;99.90
15262;DHT22;7733;51.554;13.590;2023-08-01T06:19:18;17.80;99.90
15262;DHT22;7733;51.554;13.590;2023-08-01T06:21:44;17.80;99.90
15262;DHT22;7733;51.554;13.590;2023-08-01T06:24:10;17.80;99.90
15262;DHT22;7733;51.554;13.590;2023-08-01T06:26:36;17.80;99.90
15262;DHT22;7733;51.554;13.590;2023-08-01T06:29:01;17.90;99.90
15262;DHT22;7733;51.554;13.590;2023-08-01T06:31:27;17.90;99.90
15262;DHT22;7733;51.554;13.590;2023-08-01T06:33:53;17.90;99.90
15262;DHT22;7733;51.554;13.590;2023-08-01T06:36:19;17.80;99.90
15262;DHT22;7733;51.554;13.590;2023-08-01T06:38:44;17.90;99.90
15262;DHT22;7733;51.554;13.590;2023-08-01T06:41:10;18.00;99.90
15262;DHT22;7733;51.554;13.590;2023-08-01T06:43:36;18.00;99.90
15262;DHT22;7733;51.554;13.590;2023-08-01T06:46:05;18.10;99.90
15262;DHT22;7733;51.554;13.590;2023-08-01T06:48:31;18.00;99.90
15262;DHT22;7733;51.554;13.590;2023-08-01T06:51:00;18.00;99.90
15262;DHT22;7733;51.554;13.590;2023-08-01T06:53:27;18.00;99.90
15262;DHT22;7733;51.554;13.590;2023-08-01T06:55:52;18.00;99.90
15262;DHT22;7733;51.554;13.590;2023-08-01T06:58:18;18.10;99.90
15262;DHT22;7733;51.554;13.590;2023-08-01T07:00:44;18.10;99.90
15262;DHT22;7733;51.554;13.590;2023-08-01T07:03:10;18.20;99.90
15262;DHT22;7733;51.554;13.590;2023-08-01T07:05:35;18.10;99.90
15262;DHT22;7733;51.554;13.590;2023-08-01T07:08:02;18.00;99.90
15262;DHT22;7733;51.554;13.590;2023-08-01T07:10:28;18.00;99.90
15262;DHT22;7733;51.554;13.590;2023-08-01T07:12:53;18.00;99.90
15262;DHT22;7733;51.554;13.590;2023-08-01T07:15:19;18.00;99.90
15262;DHT22;7733;51.554;13.590;2023-08-01T07:17:45;18.00;99.90
15262;DHT22;7733;51.554;13.590;2023-08-01T07:20:11;18.00;99.90
15262;DHT22;7733;51.554;13.590;2023-08-01T07:22:36;18.10;99.90
15262;DHT22;7733;51.554;13.590;2023-08-01T07:25:02;18.10;99.90
15262;DHT22;7733;51.554;13.590;2023-08-01T07:27:28;18.10;99.90
15262;DHT22;7733;51.554;13.590;2023-08-01T07:29:54;18.10;99.90
15262;DHT22;7733;51.554;13.590;2023-08-01T07:32:20;18.00;99.90
15262;DHT22;7733;51.554;13.590;2023-08-01T07:34:45;18.20;99.90
15262;DHT22;7733;51.554;13.590;2023-08-01T07:37:11;18.10;99.90
15262;DHT22;7733;51.554;13.590;2023-08-01T07:39:37;18.20;99.90
15262;DHT22;7733;51.554;13.590;2023-08-01T07:42:02;18.10;99.90
15262;DHT22;7733;51.554;13.590;2023-08-01T07:44:28;18.10;99.90
15262;DHT22;7733;51.554;13.590;2023-08-01T07:46:57;18.10;99.90
15262;DHT22;7733;51.554;13.590;2023-08-01T07:49:22;18.20;99.90
15262;DHT22;7733;51.554;13.590;2023-08-01T07:51:48;18.10;99.90
15262;DHT22;7733;51.554;13.590;2023-08-01T07:54:14;18.20;99.90
15262;DHT22;7733;51.554;13.590;2023-08-01T07:56:39;18.40;99.90
15262;DHT22;7733;51.554;13.590;2023-08-01T07:59:05;18.30;99.90
15262;DHT22;7733;51.554;13.590;2023-08-01T08:01:31;18.40;99.90
15262;DHT22;7733;51.554;13.590;2023-08-01T08:03:57;18.50;99.90
15262;DHT22;7733;51.554;13.590;2023-08-01T08:06:23;18.70;99.90
15262;DHT22;7733;51.554;13.590;2023-08-01T08:08:49;18.70;99.90
15262;DHT22;7733;51.554;13.590;2023-08-01T08:11:15;18.70;99.90
15262;DHT22;7733;51.554;13.590;2023-08-01T08:13:42;18.60;99.90
15262;DHT22;7733;51.554;13.590;2023-08-01T08:16:07;18.80;99.90
15262;DHT22;7733;51.554;13.590;2023-08-01T08:18:33;18.80;99.90
15262;DHT22;7733;51.554;13.590;2023-08-01T08:21:00;18.90;99.90
15262;DHT22;7733;51.554;13.590;2023-08-01T08:23:26;18.80;99.90
15262;DHT22;7733;51.554;13.590;2023-08-01T08:25:51;18.80;99.90
15262;DHT22;7733;51.554;13.590;2023-08-01T08:28:28;18.70;99.90
15262;DHT22;7733;51.554;13.590;2023-08-01T08:30:56;18.90;99.90
15262;DHT22;7733;51.554;13.590;2023-08-01T08:33:22;18.90;99.90
15262;DHT22;7733;51.554;13.590;2023-08-01T08:35:48;19.00;99.90
15262;DHT22;7733;51.554;13.590;2023-08-01T08:38:14;19.10;99.90
15262;DHT22;7733;51.554;13.590;2023-08-01T08:40:43;19.00;99.90
15262;DHT22;7733;51.554;13.590;2023-08-01T08:43:14;19.10;99.90
15262;DHT22;7733;51.554;13.590;2023-08-01T08:45:43;19.20;99.90
15262;DHT22;7733;51.554;13.590;2023-08-01T08:48:14;19.20;99.90
15262;DHT22;7733;51.554;13.590;2023-08-01T08:50:43;19.30;99.90
15262;DHT22;7733;51.554;13.590;2023-08-01T08:53:11;19.50;99.90
15262;DHT22;7733;51.554;13.590;2023-08-01T08:55:39;19.60;99.90
15262;DHT22;7733;51.554;13.590;2023-08-01T08:58:06;19.50;99.90
15262;DHT22;7733;51.554;13.590;2023-08-01T09:00:33;19.70;99.90
15262;DHT22;7733;51.554;13.590;2023-08-01T09:03:01;19.70;99.90
15262;DHT22;7733;51.554;13.590;2023-08-01T09:05:28;19.90;99.90
15262;DHT22;7733;51.554;13.590;2023-08-01T09:08:04;20.00;99.90
15262;DHT22;7733;51.554;13.590;2023-08-01T09:10:37;20.10;99.90
15262;DHT22;7733;51.554;13.590;2023-08-01T09:13:03;20.40;99.90
15262;DHT22;7733;51.554;13.590;2023-08-01T09:15:29;20.50;99.90
15262;DHT22;7733;51.554;13.590;2023-08-01T09:17:55;20.60;99.90
15262;DHT22;7733;51.554;13.590;2023-08-01T09:20:29;20.60;99.90
15262;DHT22;7733;51.554;13.590;2023-08-01T09:22:55;20.30;99.90
15262;DHT22;7733;51.554;13.590;2023-08-01T09:25:31;20.10;99.90
15262;DHT22;7733;51.554;13.590;2023-08-01T09:28:00;19.90;99.90
15262;DHT22;7733;51.554;13.590;2023-08-01T09:30:26;19.80;99.90
15262;DHT22;7733;51.554;13.590;2023-08-01T09:32:56;19.70;99.90
15262;DHT22;7733;51.554;13.590;2023-08-01T09:35:23;19.70;99.90
15262;DHT22;7733;51.554;13.590;2023-08-01T09:37:49;19.70;99.90
15262;DHT22;7733;51.554;13.590;2023-08-01T09:40:15;19.60;99.90
15262;DHT22;7733;51.554;13.590;2023-08-01T09:42:45;19.70;99.90
15262;DHT22;7733;51.554;13.590;2023-08-01T09:45:14;19.60;99.90
15262;DHT22;7733;51.554;13.590;2023-08-01T09:47:44;19.60;99.90
15262;DHT22;7733;51.554;13.590;2023-08-01T09:50:11;19.40;99.90
15262;DHT22;7733;51.554;13.590;2023-08-01T09:52:46;19.50;99.90
15262;DHT22;7733;51.554;13.590;2023-08-01T09:55:31;19.40;99.90
15262;DHT22;7733;51.554;13.590;2023-08-01T09:57:59;19.50;99.90
15262;DHT22;7733;51.554;13.590;2023-08-01T10:00:31;19.50;99.90
15262;DHT22;7733;51.554;13.590;2023-08-01T10:03:00;19.60;99.90
15262;DHT22;7733;51.554;13.590;2023-08-01T10:05:29;19.70;99.90
15262;DHT22;7733;51.554;13.590;2023-08-01T10:07:59;19.80;99.90
15262;DHT22;7733;51.554;13.590;2023-08-01T10:10:27;19.80;99.90
15262;DHT22;7733;51.554;13.590;2023-08-01T10:12:56;19.70;99.90
15262;DHT22;7733;51.554;13.590;2023-08-01T10:15:24;19.80;99.90
15262;DHT22;7733;51.554;13.590;2023-08-01T10:17:51;19.90;99.90
15262;DHT22;7733;51.554;13.590;2023-08-01T10:20:18;20.00;99.90
15262;DHT22;7733;51.554;13.590;2023-08-01T10:22:49;20.00;99.90
15262;DHT22;7733;51.554;13.590;2023-08-01T10:25:17;20.00;99.90
15262;DHT22;7733;51.554;13.590;2023-08-01T10:27:44;20.00;99.90
15262;DHT22;7733;51.554;13.590;2023-08-01T10:30:09;19.90;99.90
15262;DHT22;7733;51.554;13.590;2023-08-01T10:32:38;20.00;99.90
15262;DHT22;7733;51.554;13.590;2023-08-01T10:35:05;20.00;99.90
15262;DHT22;7733;51.554;13.590;2023-08-01T10:37:44;20.00;99.90
15262;DHT22;7733;51.554;13.590;2023-08-01T10:40:12;20.10;99.90
15262;DHT22;7733;51.554;13.590;2023-08-01T10:45:07;20.20;99.90
15262;DHT22;7733;51.554;13.590;2023-08-01T10:47:44;20.20;99.90
15262;DHT22;7733;51.554;13.590;2023-08-01T10:50:14;20.20;99.90
15262;DHT22;7733;51.554;13.590;2023-08-01T10:52:41;20.30;99.90
15262;DHT22;7733;51.554;13.590;2023-08-01T10:55:07;20.40;99.90
15262;DHT22;7733;51.554;13.590;2023-08-01T10:57:53;20.30;99.90
15262;DHT22;7733;51.554;13.590;2023-08-01T11:00:19;20.30;99.90
15262;DHT22;7733;51.554;13.590;2023-08-01T11:02:50;20.30;99.90
15262;DHT22;7733;51.554;13.590;2023-08-01T11:05:18;20.20;99.90
15262;DHT22;7733;51.554;13.590;2023-08-01T11:07:54;20.20;99.90
15262;DHT22;7733;51.554;13.590;2023-08-01T11:10:21;20.30;99.90
15262;DHT22;7733;51.554;13.590;2023-08-01T11:12:47;20.20;99.90
15262;DHT22;7733;51.554;13.590;2023-08-01T11:15:14;20.20;99.90
15262;DHT22;7733;51.554;13.590;2023-08-01T11:17:42;20.30;99.90
15262;DHT22;7733;51.554;13.590;2023-08-01T11:20:12;20.30;99.90
15262;DHT22;7733;51.554;13.590;2023-08-01T11:22:49;20.20;99.90
15262;DHT22;7733;51.554;13.590;2023-08-01T11:25:19;20.10;99.90
15262;DHT22;7733;51.554;13.590;2023-08-01T11:27:45;20.10;99.90
15262;DHT22;7733;51.554;13.590;2023-08-01T11:30:11;19.90;99.90
15262;DHT22;7733;51.554;13.590;2023-08-01T11:32:39;19.80;99.90
15262;DHT22;7733;51.554;13.590;2023-08-01T11:35:05;19.80;99.90
15262;DHT22;7733;51.554;13.590;2023-08-01T11:37:32;19.50;99.90
15262;DHT22;7733;51.554;13.590;2023-08-01T11:39:59;19.40;99.90
15262;DHT22;7733;51.554;13.590;2023-08-01T11:42:25;19.30;99.90
15262;DHT22;7733;51.554;13.590;2023-08-01T11:45:08;19.30;99.90
15262;DHT22;7733;51.554;13.590;2023-08-01T11:47:35;19.00;99.90
15262;DHT22;7733;51.554;13.590;2023-08-01T11:50:01;19.00;99.90
15262;DHT22;7733;51.554;13.590;2023-08-01T11:52:28;18.90;99.90
15262;DHT22;7733;51.554;13.590;2023-08-01T11:54:55;18.90;99.90
15262;DHT22;7733;51.554;13.590;2023-08-01T11:57:21;19.00;99.90
15262;DHT22;7733;51.554;13.590;2023-08-01T11:59:48;18.90;99.90
15262;DHT22;7733;51.554;13.590;2023-08-01T12:04:52;18.90;99.90
15262;DHT22;7733;51.554;13.590;2023-08-01T12:07:19;19.00;99.90
15262;DHT22;7733;51.554;13.590;2023-08-01T12:09:59;18.90;99.90
15262;DHT22;7733;51.554;13.590;2023-08-01T12:12:27;18.90;99.90
15262;DHT22;7733;51.554;13.590;2023-08-01T12:14:53;19.00;99.90
15262;DHT22;7733;51.554;13.590;2023-08-01T12:17:20;19.20;99.90
15262;DHT22;7733;51.554;13.590;2023-08-01T12:19:46;19.20;99.90
15262;DHT22;7733;51.554;13.590;2023-08-01T12:22:12;19.20;99.90
15262;DHT22;7733;51.554;13.590;2023-08-01T12:24:38;19.30;99.90
15262;DHT22;7733;51.554;13.590;2023-08-01T12:27:08;19.40;99.90
15262;DHT22;7733;51.554;13.590;2023-08-01T12:29:35;19.40;99.90
15262;DHT22;7733;51.554;13.590;2023-08-01T12:32:02;19.40;99.90
15262;DHT22;7733;51.554;13.590;2023-08-01T12:34:29;19.40;99.90
15262;DHT22;7733;51.554;13.590;2023-08-01T12:36:54;19.50;99.90
15262;DHT22;7733;51.554;13.590;2023-08-01T12:39:20;19.50;99.90
15262;DHT22;7733;51.554;13.590;2023-08-01T12:41:46;19.50;99.90
15262;DHT22;7733;51.554;13.590;2023-08-01T12:44:12;19.70;99.90
15262;DHT22;7733;51.554;13.590;2023-08-01T12:46:41;19.60;99.90
15262;DHT22;7733;51.554;13.590;2023-08-01T12:49:07;19.70;99.90
15262;DHT22;7733;51.554;13.590;2023-08-01T12:51:32;19.70;99.90
15262;DHT22;7733;51.554;13.590;2023-08-01T12:53:58;19.80;99.90
15262;DHT22;7733;51.554;13.590;2023-08-01T12:56:24;19.80;99.90
15262;DHT22;7733;51.554;13.590;2023-08-01T12:58:49;19.80;99.90
15262;DHT22;7733;51.554;13.590;2023-08-01T13:01:15;19.90;99.90
15262;DHT22;7733;51.554;13.590;2023-08-01T13:03:41;19.90;99.90
15262;DHT22;7733;51.554;13.590;2023-08-01T13:06:10;19.90;99.90
15262;DHT22;7733;51.554;13.590;2023-08-01T13:08:37;19.70;99.90
15262;DHT22;7733;51.554;13.590;2023-08-01T13:11:10;19.70;99.90
15262;DHT22;7733;51.554;13.590;2023-08-01T13:13:37;19.90;99.90
15262;DHT22;7733;51.554;13.590;2023-08-01T13:16:03;19.90;99.90
15262;DHT22;7733;51.554;13.590;2023-08-01T13:18:29;20.20;99.90
15262;DHT22;7733;51.554;13.590;2023-08-01T13:20:57;20.10;99.90
15262;DHT22;7733;51.554;13.590;2023-08-01T13:23:25;20.10;99.90
15262;DHT22;7733;51.554;13.590;2023-08-01T13:25:51;20.10;99.90
15262;DHT22;7733;51.554;13.590;2023-08-01T13:28:17;20.30;99.90
15262;DHT22;7733;51.554;13.590;2023-08-01T13:30:43;20.40;99.90
15262;DHT22;7733;51.554;13.590;2023-08-01T13:33:08;20.30;99.90
15262;DHT22;7733;51.554;13.590;2023-08-01T13:35:34;20.30;99.90
15262;DHT22;7733;51.554;13.590;2023-08-01T13:38:00;20.30;99.90
15262;DHT22;7733;51.554;13.590;2023-08-01T13:40:26;20.60;99.90
15262;DHT22;7733;51.554;13.590;2023-08-01T13:42:51;20.60;99.90
15262;DHT22;7733;51.554;13.590;2023-08-01T13:45:17;20.90;99.90
15262;DHT22;7733;51.554;13.590;2023-08-01T13:47:43;21.00;99.90
15262;DHT22;7733;51.554;13.590;2023-08-01T13:50:09;21.10;99.90
15262;DHT22;7733;51.554;13.590;2023-08-01T13:52:37;21.10;99.90
15262;DHT22;7733;51.554;13.590;2023-08-01T13:55:03;21.20;99.90
15262;DHT22;7733;51.554;13.590;2023-08-01T13:57:30;21.50;99.90
15262;DHT22;7733;51.554;13.590;2023-08-01T13:59:56;21.70;99.90
15262;DHT22;7733;51.554;13.590;2023-08-01T14:02:21;21.40;99.90
15262;DHT22;7733;51.554;13.590;2023-08-01T14:04:51;21.40;99.90
15262;DHT22;7733;51.554;13.590;2023-08-01T14:07:18;21.40;99.90
15262;DHT22;7733;51.554;13.590;2023-08-01T14:09:43;21.50;99.90
15262;DHT22;7733;51.554;13.590;2023-08-01T14:12:09;21.70;99.90
15262;DHT22;7733;51.554;13.590;2023-08-01T14:14:34;21.90;99.90
15262;DHT22;7733;51.554;13.590;2023-08-01T14:17:00;21.70;99.90
15262;DHT22;7733;51.554;13.590;2023-08-01T14:19:26;21.70;99.90
15262;DHT22;7733;51.554;13.590;2023-08-01T14:21:56;21.70;99.90
15262;DHT22;7733;51.554;13.590;2023-08-01T14:24:23;21.70;99.90
15262;DHT22;7733;51.554;13.590;2023-08-01T14:26:48;21.70;99.90
15262;DHT22;7733;51.554;13.590;2023-08-01T14:29:16;21.60;99.90
15262;DHT22;7733;51.554;13.590;2023-08-01T14:31:46;21.70;99.90
15262;DHT22;7733;51.554;13.590;2023-08-01T14:34:12;21.90;99.90
15262;DHT22;7733;51.554;13.590;2023-08-01T14:36:37;22.10;99.90
15262;DHT22;7733;51.554;13.590;2023-08-01T14:39:03;22.00;99.90
15262;DHT22;7733;51.554;13.590;2023-08-01T14:41:30;22.00;99.90
15262;DHT22;7733;51.554;13.590;2023-08-01T14:43:56;22.00;99.90
15262;DHT22;7733;51.554;13.590;2023-08-01T14:46:22;22.20;99.90
15262;DHT22;7733;51.554;13.590;2023-08-01T14:48:47;22.10;99.90
15262;DHT22;7733;51.554;13.590;2023-08-01T14:51:13;22.00;99.90
15262;DHT22;7733;51.554;13.590;2023-08-01T14:53:39;21.70;99.90
15262;DHT22;7733;51.554;13.590;2023-08-01T14:56:04;21.50;99.90
15262;DHT22;7733;51.554;13.590;2023-08-01T14:58:33;21.60;99.90
15262;DHT22;7733;51.554;13.590;2023-08-01T15:01:05;21.50;99.90
15262;DHT22;7733;51.554;13.590;2023-08-01T15:03:31;21.50;99.90
15262;DHT22;7733;51.554;13.590;2023-08-01T15:06:05;21.40;99.90
15262;DHT22;7733;51.554;13.590;2023-08-01T15:08:32;21.30;99.90
15262;DHT22;7733;51.554;13.590;2023-08-01T15:11:03;21.20;99.90
15262;DHT22;7733;51.554;13.590;2023-08-01T15:13:32;21.30;99.90
15262;DHT22;7733;51.554;13.590;2023-08-01T15:15:59;21.20;99.90
15262;DHT22;7733;51.554;13.590;2023-08-01T15:18:26;21.10;99.90
15262;DHT22;7733;51.554;13.590;2023-08-01T15:20:53;20.80;99.90
15262;DHT22;7733;51.554;13.590;2023-08-01T15:23:19;20.20;99.90
15262;DHT22;7733;51.554;13.590;2023-08-01T15:25:56;20.00;99.90
15262;DHT22;7733;51.554;13.590;2023-08-01T15:28:24;19.70;99.90
15262;DHT22;7733;51.554;13.590;2023-08-01T15:31:01;19.20;99.90
15262;DHT22;7733;51.554;13.590;2023-08-01T15:33:31;18.50;99.90